Time;durP1;ratioP1;P1;durP2;ratioP2;P2;SDS_P1;SDS_P2;PMS_P1;PMS_P2;Temp;Humidity;BMP_temperature;BMP_pressure;BME280_temperature;BME280_humidity;BME280_pressure;Samples;Min_cycle;Max_cycle;Signal;HPM_P1;HPM_P2
2024/02/24 00:00:05;;;;;;;3.77;2.13;;;;;;;3.27;100.00;94588.13;5036142;28;20774;-67
2024/02/24 00:02:31;;;;;;;3.93;2.17;;;;;;;3.37;100.00;94587.88;5035160;28;20770;-65
2024/02/24 00:04:58;;;;;;;6.23;2.87;;;;;;;3.33;100.00;94586.59;5036152;28;20202;-67
2024/02/24 00:07:26;;;;;;;4.10;2.00;;;;;;;3.50;100.00;94585.50;5035266;28;20608;-68
2024/02/24 00:09:52;;;;;;;4.27;2.30;;;;;;;3.41;100.00;94594.34;5035902;28;20213;-68
2024/02/24 00:12:19;;;;;;;3.20;2.00;;;;;;;3.40;100.00;94590.13;5035272;28;20231;-65
2024/02/24 00:14:45;;;;;;;4.00;2.20;;;;;;;3.01;100.00;94598.00;5035881;28;20206;-67
2024/02/24 00:17:12;;;;;;;5.57;2.07;;;;;;;3.02;100.00;94593.63;5035407;28;20582;-67
2024/02/24 00:19:38;;;;;;;4.27;1.97;;;;;;;3.09;100.00;94589.34;5035731;28;20205;-67
2024/02/24 00:22:05;;;;;;;4.13;2.00;;;;;;;2.94;100.00;94591.09;5035278;28;20662;-67
2024/02/24 00:24:33;;;;;;;3.73;2.00;;;;;;;2.89;100.00;94609.00;5035430;28;20211;-68
2024/02/24 00:26:59;;;;;;;6.83;2.20;;;;;;;3.06;100.00;94600.91;5035239;28;20204;-68
2024/02/24 00:29:26;;;;;;;4.93;2.50;;;;;;;3.21;100.00;94598.41;5035630;28;20210;-68
2024/02/24 00:31:52;;;;;;;3.73;1.93;;;;;;;3.25;100.00;94597.88;5034842;28;20739;-68
2024/02/24 00:34:19;;;;;;;4.70;2.03;;;;;;;3.19;100.00;94595.16;5035652;28;20201;-68
2024/02/24 00:36:45;;;;;;;5.67;2.70;;;;;;;3.28;100.00;94592.31;5035677;28;20618;-68
2024/02/24 00:39:12;;;;;;;3.87;2.07;;;;;;;3.31;100.00;94593.75;5035608;28;20197;-67
2024/02/24 00:41:40;;;;;;;3.37;2.20;;;;;;;3.29;100.00;94590.53;5033242;28;20287;-68
2024/02/24 00:44:06;;;;;;;5.97;2.80;;;;;;;3.24;100.00;94590.25;5035745;28;20404;-68
2024/02/24 00:46:33;;;;;;;4.90;2.77;;;;;;;3.31;100.00;94589.38;5035573;28;20203;-68
2024/02/24 00:48:59;;;;;;;4.63;2.40;;;;;;;3.37;100.00;94593.88;5034842;28;20405;-68
2024/02/24 00:51:25;;;;;;;8.17;2.70;;;;;;;3.24;100.00;94592.84;5034904;28;20220;-68
2024/02/24 00:53:52;;;;;;;4.40;2.47;;;;;;;3.28;100.00;94591.50;5035335;28;20565;-68
2024/02/24 00:56:19;;;;;;;3.63;2.27;;;;;;;3.31;100.00;94596.38;5034748;28;20475;-68
2024/02/24 00:58:46;;;;;;;4.10;2.20;;;;;;;3.42;100.00;94586.34;5035048;28;20731;-66
2024/02/24 01:01:13;;;;;;;4.90;2.67;;;;;;;3.41;100.00;94581.34;5035917;28;20216;-67
2024/02/24 01:03:39;;;;;;;4.17;1.80;;;;;;;3.48;100.00;94584.88;5033635;28;20233;-67
2024/02/24 01:06:06;;;;;;;4.57;2.23;;;;;;;3.48;100.00;94596.09;5036096;28;20234;-68
2024/02/24 01:08:32;;;;;;;4.00;2.20;;;;;;;3.62;100.00;94596.13;5034440;28;20228;-67
2024/02/24 01:10:59;;;;;;;5.77;2.70;;;;;;;3.56;100.00;94592.63;5035236;28;20205;-68
2024/02/24 01:13:25;;;;;;;4.23;2.20;;;;;;;3.58;100.00;94588.03;5034204;28;20222;-67
2024/02/24 01:15:53;;;;;;;6.97;2.83;;;;;;;3.62;100.00;94589.31;5035474;28;20209;-67
2024/02/24 01:18:20;;;;;;;4.47;2.60;;;;;;;3.70;100.00;94590.88;5034677;28;20203;-67
2024/02/24 01:20:48;;;;;;;6.50;2.87;;;;;;;3.78;100.00;94588.19;5034823;28;20677;-67
2024/02/24 01:23:15;;;;;;;3.87;2.67;;;;;;;3.90;100.00;94589.38;5034813;28;20252;-67
2024/02/24 01:25:41;;;;;;;4.90;2.60;;;;;;;3.89;100.00;94589.56;5034885;28;20204;-67
2024/02/24 01:28:07;;;;;;;4.17;2.27;;;;;;;3.83;100.00;94585.88;5035210;28;20235;-66
2024/02/24 01:30:36;;;;;;;4.37;2.63;;;;;;;3.77;100.00;94586.56;5034872;28;20208;-68
2024/02/24 01:33:05;;;;;;;4.73;2.57;;;;;;;3.92;100.00;94584.81;5034193;28;20223;-66
2024/02/24 01:35:32;;;;;;;7.07;2.90;;;;;;;3.76;100.00;94584.16;5034723;28;20561;-66
2024/02/24 01:37:58;;;;;;;6.10;2.80;;;;;;;3.65;100.00;94587.16;5035331;28;20203;-67
2024/02/24 01:40:25;;;;;;;5.10;2.20;;;;;;;3.73;100.00;94587.91;5035054;28;20214;-68
2024/02/24 01:42:51;;;;;;;3.23;2.00;;;;;;;3.71;100.00;94587.25;5033794;28;20231;-66
2024/02/24 01:45:18;;;;;;;4.03;2.13;;;;;;;3.61;100.00;94596.31;5034794;28;20205;-67
2024/02/24 01:47:45;;;;;;;4.90;2.30;;;;;;;3.74;100.00;94596.53;5034512;28;20232;-67
2024/02/24 01:50:13;;;;;;;4.67;2.43;;;;;;;3.88;100.00;94593.16;5033780;28;20387;-67
2024/02/24 01:52:41;;;;;;;5.27;1.90;;;;;;;3.81;100.00;94598.25;5033910;28;20411;-68
2024/02/24 01:55:09;;;;;;;5.23;2.23;;;;;;;3.83;100.00;94614.53;5039121;28;20222;-67
2024/02/24 01:57:41;;;;;;;3.53;2.37;;;;;;;3.87;100.00;94599.34;5038455;28;20204;-68
2024/02/24 02:00:09;;;;;;;3.47;2.10;;;;;;;3.74;100.00;94612.97;5038442;28;20220;-67
2024/02/24 02:02:37;;;;;;;4.30;1.87;;;;;;;3.85;100.00;94607.34;5038162;28;20254;-68
2024/02/24 02:05:06;;;;;;;4.17;2.07;;;;;;;3.91;100.00;94613.66;5037348;28;20208;-66
2024/02/24 02:07:34;;;;;;;4.00;1.97;;;;;;;3.83;100.00;94611.94;5038364;28;20204;-67
2024/02/24 02:10:01;;;;;;;3.93;1.60;;;;;;;3.65;100.00;94631.44;5037935;28;20209;-67
2024/02/24 02:12:28;;;;;;;5.10;2.00;;;;;;;3.66;100.00;94620.84;5037791;28;20366;-66
2024/02/24 02:14:55;;;;;;;2.97;2.00;;;;;;;3.81;100.00;94613.88;5038180;28;20213;-66
2024/02/24 02:17:22;;;;;;;3.00;1.73;;;;;;;3.77;100.00;94614.44;5038195;28;20482;-67
2024/02/24 02:19:49;;;;;;;3.07;2.00;;;;;;;3.70;100.00;94621.28;5037960;28;20204;-67
2024/02/24 02:22:18;;;;;;;3.27;1.60;;;;;;;3.79;100.00;94618.47;5037412;28;20638;-66
2024/02/24 02:24:46;;;;;;;2.17;2.00;;;;;;;3.80;100.00;94620.06;5037982;28;20205;-67
2024/02/24 02:27:13;;;;;;;3.13;1.70;;;;;;;3.56;100.00;94627.25;5038153;28;20379;-67
2024/02/24 02:29:39;;;;;;;4.97;2.07;;;;;;;3.67;100.00;94629.47;5036693;28;20227;-68
2024/02/24 02:32:07;;;;;;;3.20;2.10;;;;;;;3.77;100.00;94617.81;5037319;28;20242;-67
2024/02/24 02:34:34;;;;;;;4.97;1.80;;;;;;;3.49;100.00;94622.91;5037879;28;20205;-67
2024/02/24 02:37:01;;;;;;;3.60;1.60;;;;;;;3.64;100.00;94616.81;5037667;28;20207;-67
2024/02/24 02:39:27;;;;;;;3.83;1.70;;;;;;;3.64;100.00;94615.00;5038008;28;20203;-68
2024/02/24 02:41:55;;;;;;;3.30;1.80;;;;;;;3.76;100.00;94621.41;5036387;28;20500;-65
2024/02/24 02:44:21;;;;;;;2.30;1.60;;;;;;;3.65;100.00;94623.63;5037007;28;20219;-67
2024/02/24 02:46:48;;;;;;;3.20;1.93;;;;;;;3.71;100.00;94618.50;5038012;28;20201;-66
2024/02/24 02:49:16;;;;;;;2.87;2.00;;;;;;;3.71;100.00;94622.94;5037138;28;20227;-66
2024/02/24 02:51:42;;;;;;;3.50;1.70;;;;;;;3.64;100.00;94617.59;5037006;28;20713;-66
2024/02/24 02:54:09;;;;;;;2.70;1.53;;;;;;;3.57;100.00;94635.91;5037854;28;20205;-66
2024/02/24 02:56:36;;;;;;;4.87;1.87;;;;;;;3.65;100.00;94632.25;5036665;28;20648;-66
2024/02/24 02:59:04;;;;;;;3.07;1.70;;;;;;;3.80;100.00;94633.09;5037627;28;20203;-65
2024/02/24 03:01:31;;;;;;;2.30;1.50;;;;;;;3.66;100.00;94620.84;5037298;28;20215;-65
2024/02/24 03:03:57;;;;;;;2.07;1.57;;;;;;;3.64;100.00;94635.84;5035672;28;20204;-67
2024/02/24 03:06:24;;;;;;;2.87;1.50;;;;;;;3.62;100.00;94640.41;5036653;28;20205;-66
2024/02/24 03:08:51;;;;;;;2.50;1.70;;;;;;;3.64;100.00;94648.84;5038931;28;20639;-66
2024/02/24 03:11:18;;;;;;;2.77;1.83;;;;;;;3.60;100.00;94640.75;5038449;28;20218;-67
2024/02/24 03:13:44;;;;;;;3.57;1.80;;;;;;;3.70;100.00;94637.75;5036051;28;20711;-67
2024/02/24 03:16:12;;;;;;;2.93;2.10;;;;;;;3.81;100.00;94639.13;5037282;28;20464;-67
2024/02/24 03:18:39;;;;;;;6.63;1.73;;;;;;;3.63;100.00;94634.22;5037042;28;20202;-67
2024/02/24 03:21:05;;;;;;;3.77;1.70;;;;;;;3.68;100.00;94631.09;5037326;28;20509;-67
2024/02/24 03:23:32;;;;;;;5.13;1.90;;;;;;;3.63;100.00;94631.59;5035929;28;20225;-67
2024/02/24 03:25:58;;;;;;;4.00;1.30;;;;;;;3.50;100.00;94635.78;5037602;28;20210;-67
2024/02/24 03:28:25;;;;;;;3.07;1.57;;;;;;;3.57;100.00;94630.69;5036339;28;20233;-66
2024/02/24 03:30:51;;;;;;;2.70;1.80;;;;;;;3.59;100.00;94639.97;5036969;28;20705;-66
2024/02/24 03:33:19;;;;;;;2.13;1.33;;;;;;;3.68;100.00;94639.72;5035874;28;20223;-66
2024/02/24 03:35:45;;;;;;;4.00;1.60;;;;;;;3.58;100.00;94634.91;5034270;28;20671;-66
2024/02/24 03:38:12;;;;;;;2.27;1.60;;;;;;;3.69;100.00;94633.53;5037044;28;20562;-66
2024/02/24 03:40:39;;;;;;;2.20;1.40;;;;;;;3.59;100.00;94633.91;5036460;28;20199;-65
2024/02/24 03:43:05;;;;;;;2.57;1.60;;;;;;;3.60;100.00;94636.34;5035681;28;20639;-66
2024/02/24 03:45:32;;;;;;;2.03;1.53;;;;;;;3.59;100.00;94636.53;5036187;28;20704;-67
2024/02/24 03:47:58;;;;;;;2.97;1.60;;;;;;;3.60;100.00;94641.56;5036027;28;20210;-67
2024/02/24 03:50:26;;;;;;;2.37;1.57;;;;;;;3.70;100.00;94636.94;5036294;28;20219;-66
2024/02/24 03:52:53;;;;;;;2.77;1.87;;;;;;;3.63;100.00;94642.03;5035313;28;20219;-66
2024/02/24 03:55:20;;;;;;;5.60;1.67;;;;;;;3.62;100.00;94642.19;5035919;28;20815;-65
2024/02/24 03:57:46;;;;;;;1.73;1.30;;;;;;;3.63;100.00;94647.22;5036242;28;20701;-67
2024/02/24 04:00:14;;;;;;;2.33;1.30;;;;;;;3.76;100.00;94641.44;5036001;28;20222;-66
2024/02/24 04:02:43;;;;;;;1.87;1.43;;;;;;;3.67;100.00;94645.91;5035148;28;20470;-67
2024/02/24 04:05:10;;;;;;;2.83;1.37;;;;;;;3.56;100.00;94649.91;5036232;28;20212;-67
2024/02/24 04:07:38;;;;;;;1.97;1.50;;;;;;;3.71;100.00;94654.19;5036697;28;20207;-65
2024/02/24 04:10:05;;;;;;;2.13;1.30;;;;;;;3.59;100.00;94662.56;5036335;28;20261;-65
2024/02/24 04:12:32;;;;;;;2.00;1.20;;;;;;;3.56;100.00;94665.53;5035766;28;20877;-67
2024/02/24 04:14:58;;;;;;;2.53;1.50;;;;;;;3.55;100.00;94663.88;5035755;28;20274;-66
2024/02/24 04:17:25;;;;;;;2.60;1.57;;;;;;;3.41;100.00;94662.03;5036098;28;20221;-66
2024/02/24 04:19:51;;;;;;;2.97;1.43;;;;;;;3.26;100.00;94668.94;5036387;28;20199;-66
2024/02/24 04:22:18;;;;;;;1.87;1.33;;;;;;;3.28;100.00;94674.78;5036990;28;20229;-66
2024/02/24 04:24:46;;;;;;;1.63;1.37;;;;;;;3.20;100.00;94675.66;5036837;28;20205;-67
2024/02/24 04:27:12;;;;;;;2.20;1.40;;;;;;;2.98;100.00;94667.81;5036804;28;20601;-67
2024/02/24 04:29:38;;;;;;;2.33;1.40;;;;;;;3.06;100.00;94673.75;5035800;28;20221;-65
2024/02/24 04:32:05;;;;;;;2.93;1.20;;;;;;;3.30;100.00;94678.84;5036668;28;20728;-66
2024/02/24 04:34:32;;;;;;;1.57;1.00;;;;;;;3.35;100.00;94675.75;5035719;28;20208;-66
2024/02/24 04:36:58;;;;;;;2.70;1.37;;;;;;;3.29;100.00;94689.44;5035572;28;20217;-65
2024/02/24 04:39:25;;;;;;;1.40;1.10;;;;;;;3.11;100.00;94686.28;5034835;28;20205;-66
2024/02/24 04:41:53;;;;;;;2.33;1.27;;;;;;;3.31;100.00;94671.84;5034496;28;20602;-66
2024/02/24 04:44:19;;;;;;;2.70;1.23;;;;;;;3.14;100.00;94678.13;5034703;28;20217;-66
2024/02/24 04:46:46;;;;;;;2.07;1.00;;;;;;;3.09;100.00;94675.22;5035689;28;20206;-65
2024/02/24 04:49:12;;;;;;;2.63;1.57;;;;;;;3.12;100.00;94686.09;5035355;28;20599;-67
2024/02/24 04:51:38;;;;;;;2.43;1.00;;;;;;;3.09;100.00;94686.44;5035223;28;20223;-66
2024/02/24 04:54:05;;;;;;;4.40;1.30;;;;;;;3.11;100.00;94684.47;5035497;28;20206;-66
2024/02/24 04:56:31;;;;;;;1.97;1.33;;;;;;;2.91;100.00;94695.44;5035344;28;20209;-65
2024/02/24 04:58:59;;;;;;;2.10;1.40;;;;;;;3.01;100.00;94691.66;5034730;28;20586;-66
2024/02/24 05:01:26;;;;;;;2.50;1.77;;;;;;;2.92;100.00;94697.09;5035308;28;20213;-66
2024/02/24 05:03:52;;;;;;;2.37;1.50;;;;;;;2.82;100.00;94693.06;5034730;28;20206;-66
2024/02/24 05:06:19;;;;;;;4.70;1.80;;;;;;;2.58;100.00;94693.94;5035065;28;20212;-65
2024/02/24 05:08:45;;;;;;;2.47;1.53;;;;;;;2.67;100.00;94692.13;5034975;28;20222;-66
2024/02/24 05:11:12;;;;;;;2.50;1.47;;;;;;;2.61;100.00;94698.81;5034824;28;20205;-66
2024/02/24 05:13:38;;;;;;;2.63;1.70;;;;;;;2.50;100.00;94696.53;5034350;28;20224;-66
2024/02/24 05:16:06;;;;;;;4.13;1.87;;;;;;;2.88;100.00;94698.41;5034682;28;20205;-66
2024/02/24 05:18:33;;;;;;;3.17;1.63;;;;;;;2.59;100.00;94700.75;5034588;28;20229;-65
2024/02/24 05:21:00;;;;;;;3.03;2.00;;;;;;;2.78;100.00;94705.56;5034978;28;20201;-65
2024/02/24 05:23:27;;;;;;;4.20;1.80;;;;;;;2.65;100.00;94710.50;5034228;28;20721;-67
2024/02/24 05:25:53;;;;;;;2.80;1.90;;;;;;;2.63;100.00;94707.25;5035134;28;20217;-66
2024/02/24 05:28:20;;;;;;;10.67;2.43;;;;;;;2.75;100.00;94705.91;5037804;28;20228;-66
2024/02/24 05:30:47;;;;;;;2.50;1.50;;;;;;;2.80;100.00;94698.44;5038995;28;20226;-67
2024/02/24 05:33:16;;;;;;;3.80;1.70;;;;;;;2.80;100.00;94706.25;5038362;28;20615;-67
2024/02/24 05:35:42;;;;;;;3.37;1.70;;;;;;;2.72;100.00;94728.84;5039592;28;20210;-67
2024/02/24 05:38:09;;;;;;;2.57;1.47;;;;;;;2.59;100.00;94737.16;5038753;28;20201;-67
2024/02/24 05:40:35;;;;;;;3.27;1.90;;;;;;;2.33;100.00;94745.31;5038838;28;20204;-67
2024/02/24 05:43:02;;;;;;;3.53;2.00;;;;;;;2.34;100.00;94749.53;5038734;28;20225;-67
2024/02/24 05:45:29;;;;;;;3.23;2.13;;;;;;;2.43;100.00;94749.34;5039130;28;20212;-68
2024/02/24 05:47:56;;;;;;;4.63;2.30;;;;;;;2.46;100.00;94752.44;5038776;28;20691;-67
2024/02/24 05:50:24;;;;;;;5.50;1.80;;;;;;;2.37;100.00;94749.19;5038518;28;20225;-68
2024/02/24 05:52:51;;;;;;;3.97;1.90;;;;;;;2.11;100.00;94756.34;5037515;28;20221;-67
2024/02/24 05:55:17;;;;;;;4.43;2.47;;;;;;;2.30;100.00;94766.44;5039177;28;20438;-67
2024/02/24 05:57:44;;;;;;;2.43;1.90;;;;;;;2.23;100.00;94775.84;5038326;28;20279;-68
2024/02/24 06:00:12;;;;;;;3.17;1.70;;;;;;;2.45;100.00;94776.81;5038742;28;20473;-68
2024/02/24 06:02:38;;;;;;;3.87;2.03;;;;;;;2.48;100.00;94786.06;5038012;28;20221;-68
2024/02/24 06:05:05;;;;;;;3.40;1.87;;;;;;;2.66;100.00;94789.28;5038649;28;20215;-68
2024/02/24 06:07:33;;;;;;;2.80;1.70;;;;;;;2.85;100.00;94788.94;5038298;28;20214;-67
2024/02/24 06:10:00;;;;;;;2.90;1.93;;;;;;;2.60;100.00;94790.78;5038136;28;20889;-68
2024/02/24 06:12:26;;;;;;;3.57;1.70;;;;;;;2.72;100.00;94792.03;5036931;28;20603;-68
2024/02/24 06:14:53;;;;;;;8.53;2.17;;;;;;;2.73;100.00;94791.06;5038526;28;20739;-68
2024/02/24 06:17:19;;;;;;;14.27;3.70;;;;;;;2.86;100.00;94780.97;5038595;28;20209;-68
2024/02/24 06:19:46;;;;;;;4.93;2.63;;;;;;;2.91;100.00;94783.88;5038046;28;20213;-68
2024/02/24 06:22:12;;;;;;;5.00;2.10;;;;;;;2.96;100.00;94791.22;5037734;28;20572;-68
2024/02/24 06:24:40;;;;;;;6.67;2.83;;;;;;;3.17;100.00;94795.69;5038099;28;20245;-68
2024/02/24 06:27:07;;;;;;;14.03;5.33;;;;;;;3.11;100.00;94805.97;5037844;28;20252;-69
2024/02/24 06:29:33;;;;;;;8.80;3.50;;;;;;;3.10;100.00;94809.53;5038518;28;20419;-68
2024/02/24 06:32:00;;;;;;;8.77;3.20;;;;;;;3.26;100.00;94819.88;5037780;28;20229;-68
2024/02/24 06:34:26;;;;;;;12.47;4.23;;;;;;;3.29;100.00;94812.56;5038004;28;20210;-68
2024/02/24 06:36:53;;;;;;;14.20;4.50;;;;;;;3.51;100.00;94826.66;5038447;28;20213;-68
2024/02/24 06:39:19;;;;;;;9.33;3.60;;;;;;;3.47;100.00;94822.75;5036710;28;20204;-68
2024/02/24 06:41:47;;;;;;;14.97;5.17;;;;;;;3.80;100.00;94828.47;5036940;28;20229;-69
2024/02/24 06:44:14;;;;;;;11.80;4.40;;;;;;;3.64;100.00;94835.56;5037786;28;20207;-69
2024/02/24 06:46:40;;;;;;;7.20;2.73;;;;;;;3.66;100.00;94839.59;5038691;28;20209;-69
2024/02/24 06:49:06;;;;;;;5.73;2.57;;;;;;;3.71;100.00;94842.50;5037456;28;20213;-68
2024/02/24 06:51:33;;;;;;;3.90;2.00;;;;;;;3.74;100.00;94855.22;5037776;28;20206;-68
2024/02/24 06:53:59;;;;;;;5.17;2.27;;;;;;;3.96;100.00;94859.66;5036681;28;20209;-69
2024/02/24 06:56:26;;;;;;;4.67;2.33;;;;;;;4.04;100.00;94859.63;5038565;28;20681;-69
2024/02/24 06:58:54;;;;;;;2.90;1.90;;;;;;;4.22;100.00;94860.16;5037750;28;20211;-69
2024/02/24 07:01:23;;;;;;;4.27;1.80;;;;;;;4.51;100.00;94860.31;5037744;28;21296;-66
2024/02/24 07:03:50;;;;;;;5.90;2.33;;;;;;;4.26;100.00;94875.31;5037481;28;20798;-69
2024/02/24 07:06:18;;;;;;;4.27;1.93;;;;;;;4.44;100.00;94885.44;5037722;28;20215;-67
2024/02/24 07:08:45;;;;;;;2.33;1.53;;;;;;;4.31;100.00;94886.00;5037619;28;20290;-69
2024/02/24 07:11:11;;;;;;;1.53;1.30;;;;;;;4.05;100.00;94887.31;5037722;28;20288;-68
2024/02/24 07:13:39;;;;;;;1.93;1.30;;;;;;;4.34;100.00;94890.06;5036782;28;20233;-66
2024/02/24 07:16:07;;;;;;;2.73;1.17;;;;;;;4.48;100.00;94897.97;5037602;28;20232;-69
2024/02/24 07:18:34;;;;;;;1.87;1.60;;;;;;;4.60;100.00;94914.03;5038410;28;20208;-69
2024/02/24 07:21:02;;;;;;;2.03;1.27;;;;;;;4.90;100.00;94912.19;5037835;28;20204;-67
2024/02/24 07:23:28;;;;;;;12.17;2.97;;;;;;;4.85;100.00;94913.72;5036678;28;20228;-67
2024/02/24 07:25:54;;;;;;;3.27;1.50;;;;;;;4.88;100.00;94918.56;5036924;28;20585;-68
2024/02/24 07:28:21;;;;;;;4.73;1.57;;;;;;;5.06;100.00;94927.72;5037372;28;20211;-67
2024/02/24 07:30:48;;;;;;;2.93;1.07;;;;;;;5.18;100.00;94930.72;5036275;28;20224;-68
2024/02/24 07:33:16;;;;;;;2.37;1.47;;;;;;;5.35;100.00;94935.63;5036603;28;20233;-68
2024/02/24 07:35:43;;;;;;;2.50;1.50;;;;;;;5.14;100.00;94940.72;5036665;28;21529;-69
2024/02/24 07:38:09;;;;;;;2.27;1.27;;;;;;;5.23;100.00;94944.88;5036417;28;20621;-68
2024/02/24 07:40:36;;;;;;;4.60;1.20;;;;;;;5.31;100.00;94941.38;5035052;28;20205;-68
2024/02/24 07:43:02;;;;;;;2.57;1.57;;;;;;;5.14;100.00;94953.78;5035821;28;20217;-71
2024/02/24 07:45:29;;;;;;;2.13;1.60;;;;;;;5.35;100.00;94950.50;5035857;28;20208;-72
2024/02/24 07:47:56;;;;;;;3.70;1.53;;;;;;;5.48;100.00;94954.13;5037523;28;20204;-69
2024/02/24 07:50:24;;;;;;;9.37;3.90;;;;;;;5.69;100.00;94959.47;5036427;28;20228;-68
2024/02/24 07:52:50;;;;;;;4.50;1.63;;;;;;;5.61;100.00;94959.53;5035344;28;20244;-71
2024/02/24 07:55:18;;;;;;;15.47;3.57;;;;;;;5.59;100.00;94966.75;5036601;28;20209;-70
2024/02/24 07:57:44;;;;;;;21.53;5.47;;;;;;;5.69;100.00;94973.34;5037050;28;21400;-70
2024/02/24 08:00:12;;;;;;;36.77;8.03;;;;;;;5.31;100.00;94975.31;5035811;28;20197;-70
2024/02/24 08:02:40;;;;;;;20.87;8.30;;;;;;;5.50;100.00;94968.63;5035321;28;20240;-73
2024/02/24 08:05:07;;;;;;;20.80;10.43;;;;;;;5.45;100.00;94981.41;5036420;28;20657;-72
2024/02/24 08:07:35;;;;;;;13.87;6.70;;;;;;;5.74;100.00;94972.81;5035598;28;20591;-72
2024/02/24 08:10:01;;;;;;;14.37;3.93;;;;;;;5.78;100.00;94958.41;5035870;28;20224;-70
2024/02/24 08:12:28;;;;;;;10.27;3.40;;;;;;;5.93;100.00;94964.47;5035584;28;20730;-69
2024/02/24 08:14:54;;;;;;;12.53;5.20;;;;;;;5.79;100.00;94968.72;5036133;28;20201;-70
2024/02/24 08:17:21;;;;;;;10.30;4.63;;;;;;;6.17;100.00;94978.91;5035796;28;20205;-73
2024/02/24 08:19:47;;;;;;;22.57;4.20;;;;;;;6.28;100.00;94980.25;5035614;28;20205;-72
2024/02/24 08:22:14;;;;;;;10.97;3.40;;;;;;;6.41;100.00;94978.63;5035479;28;20572;-70
2024/02/24 08:24:42;;;;;;;9.17;4.60;;;;;;;6.58;100.00;94976.59;5034990;28;20208;-70
2024/02/24 08:27:08;;;;;;;3.63;1.80;;;;;;;6.28;100.00;94980.25;5036179;28;20672;-68
2024/02/24 08:29:35;;;;;;;4.70;2.33;;;;;;;6.42;100.00;94982.84;5035991;28;20201;-69
2024/02/24 08:32:01;;;;;;;5.33;2.13;;;;;;;6.73;100.00;94986.06;5035076;28;20682;-69
2024/02/24 08:34:28;;;;;;;5.17;2.57;;;;;;;6.94;100.00;94994.75;5035293;28;20216;-70
2024/02/24 08:36:54;;;;;;;7.37;2.13;;;;;;;6.98;100.00;95001.25;5035610;28;20460;-71
2024/02/24 08:39:20;;;;;;;5.23;2.07;;;;;;;6.81;100.00;95005.09;5035802;28;20205;-66
2024/02/24 08:41:48;;;;;;;5.03;2.37;;;;;;;7.24;100.00;95008.56;5033820;28;20743;-66
2024/02/24 08:44:15;;;;;;;5.33;2.37;;;;;;;7.10;100.00;95006.81;5036005;28;20201;-73
2024/02/24 08:46:41;;;;;;;10.57;3.10;;;;;;;6.94;100.00;95020.94;5035341;28;20205;-73
2024/02/24 08:49:08;;;;;;;9.87;2.80;;;;;;;7.17;100.00;95020.81;5036138;28;20209;-70
2024/02/24 08:51:34;;;;;;;2.53;1.67;;;;;;;7.36;100.00;95016.56;5034699;28;20419;-74
2024/02/24 08:54:01;;;;;;;2.80;1.40;;;;;;;7.55;100.00;95018.56;5034985;28;20914;-72
2024/02/24 08:56:27;;;;;;;3.33;1.53;;;;;;;7.30;100.00;95030.41;5035294;28;20213;-68
2024/02/24 08:58:55;;;;;;;2.40;1.43;;;;;;;7.57;100.00;95028.84;5034756;28;20205;-70
2024/02/24 09:01:22;;;;;;;1.60;1.33;;;;;;;7.35;100.00;95014.94;5035921;28;20216;-68
2024/02/24 09:03:48;;;;;;;2.00;1.27;;;;;;;7.24;100.00;95006.75;5034324;28;20546;-71
2024/02/24 09:06:15;;;;;;;2.40;1.10;;;;;;;7.57;100.00;95003.44;5035412;28;20235;-70
2024/02/24 09:08:42;;;;;;;0.70;0.70;;;;;;;7.34;100.00;95008.09;5035277;28;20213;-73
2024/02/24 09:11:08;;;;;;;0.70;0.70;;;;;;;7.39;100.00;95003.06;5035692;28;20224;-68
2024/02/24 09:13:35;;;;;;;1.40;0.83;;;;;;;7.53;100.00;95012.69;5034109;28;20224;-72
2024/02/24 09:16:02;;;;;;;1.10;1.00;;;;;;;7.66;100.00;95018.06;5035343;28;20197;-69
2024/02/24 09:18:30;;;;;;;2.23;1.00;;;;;;;7.60;100.00;95008.31;5035704;28;20220;-69
2024/02/24 09:20:56;;;;;;;2.40;1.37;;;;;;;7.63;100.00;95007.94;5035661;28;20210;-69
2024/02/24 09:23:23;;;;;;;0.83;0.70;;;;;;;7.81;100.00;95021.41;5032381;28;20229;-68
2024/02/24 09:25:49;;;;;;;2.13;1.10;;;;;;;7.83;100.00;95024.66;5034929;28;20212;-66
2024/02/24 09:28:16;;;;;;;1.67;0.90;;;;;;;7.91;100.00;95016.66;5035248;28;20205;-67
2024/02/24 09:30:42;;;;;;;1.53;0.83;;;;;;;7.90;100.00;95030.75;5035013;28;20225;-67
2024/02/24 09:33:10;;;;;;;0.77;0.70;;;;;;;8.07;100.00;95029.47;5034216;28;20231;-69
2024/02/24 09:35:36;;;;;;;1.70;1.23;;;;;;;7.91;100.00;95035.00;5034943;28;20671;-68
2024/02/24 09:38:03;;;;;;;1.60;1.33;;;;;;;8.03;100.00;95036.09;5034651;28;20205;-67
2024/02/24 09:40:29;;;;;;;1.30;0.80;;;;;;;8.19;100.00;95035.84;5034859;28;20205;-67
2024/02/24 09:43:03;;;;;;;1.53;1.07;;;;;;;8.42;100.00;95036.41;5034334;28;20224;-67
2024/02/24 09:45:35;;;;;;;1.10;0.87;;;;;;;8.64;100.00;95044.84;5034623;28;20659;-67
2024/02/24 09:48:02;;;;;;;1.60;1.30;;;;;;;8.48;100.00;95047.75;5034690;28;20229;-67
2024/02/24 09:50:30;;;;;;;0.93;0.77;;;;;;;8.38;100.00;95045.69;5034942;28;20225;-67
2024/02/24 09:52:56;;;;;;;1.30;0.90;;;;;;;8.35;100.00;95052.13;5034421;28;20641;-67
2024/02/24 09:55:23;;;;;;;1.43;1.00;;;;;;;8.63;100.00;95050.25;5035096;28;20228;-67
2024/02/24 09:57:51;;;;;;;2.53;0.90;;;;;;;8.63;100.00;95052.88;5035462;28;20216;-66
2024/02/24 10:00:18;;;;;;;0.60;0.60;;;;;;;8.30;100.00;95058.94;5034584;28;20215;-67
2024/02/24 10:02:45;;;;;;;1.63;0.90;;;;;;;8.28;100.00;95056.50;5034286;28;20221;-67
2024/02/24 10:05:11;;;;;;;0.93;0.80;;;;;;;8.74;100.00;95058.41;5034514;28;20212;-67
2024/02/24 10:07:40;;;;;;;1.53;0.63;;;;;;;8.90;100.00;95068.59;5034933;28;20217;-67
2024/02/24 10:10:07;;;;;;;1.00;0.70;;;;;;;8.84;99.56;95077.25;5034205;28;20209;-67
2024/02/24 10:12:34;;;;;;;0.93;0.70;;;;;;;9.24;96.06;95071.16;5034712;28;20248;-67
2024/02/24 10:15:00;;;;;;;1.97;1.00;;;;;;;9.36;99.52;95072.22;5036393;28;20212;-67
2024/02/24 10:17:29;;;;;;;3.07;1.00;;;;;;;9.71;96.17;95070.09;5037628;28;20400;-68
2024/02/24 10:19:56;;;;;;;2.07;0.70;;;;;;;9.98;92.94;95070.94;5038590;28;20299;-65
2024/02/24 10:22:22;;;;;;;0.53;0.53;;;;;;;9.77;88.95;95074.53;5038899;28;20734;-67
2024/02/24 10:24:51;;;;;;;1.50;0.67;;;;;;;10.32;90.21;95071.56;5037880;28;20693;-66
2024/02/24 10:27:18;;;;;;;0.63;0.63;;;;;;;10.53;87.29;95079.25;5037877;28;20216;-66
2024/02/24 10:29:50;;;;;;;0.57;0.50;;;;;;;10.52;82.81;95059.19;5037800;28;20213;-66
2024/02/24 10:32:17;;;;;;;0.50;0.40;;;;;;;9.92;84.82;95067.28;5037943;28;20236;-65
2024/02/24 10:34:44;;;;;;;0.50;0.50;;;;;;;10.27;86.88;95070.56;5037758;28;20206;-67
2024/02/24 10:37:11;;;;;;;0.60;0.60;;;;;;;10.11;79.54;95077.03;5038666;28;20215;-67
2024/02/24 10:39:40;;;;;;;0.70;0.70;;;;;;;10.15;78.19;95077.44;5037608;28;20206;-66
2024/02/24 10:42:08;;;;;;;0.40;0.40;;;;;;;9.88;78.56;95065.25;5037081;28;20232;-66
2024/02/24 10:44:35;;;;;;;0.83;0.50;;;;;;;9.83;80.10;95072.94;5037518;28;20201;-65
2024/02/24 10:47:02;;;;;;;1.50;0.93;;;;;;;10.19;81.00;95074.19;5037995;28;20213;-66
2024/02/24 10:49:29;;;;;;;0.77;0.67;;;;;;;10.19;80.21;95083.94;5037094;28;20205;-65
2024/02/24 10:51:56;;;;;;;0.67;0.60;;;;;;;9.85;79.75;95084.88;5037086;28;20229;-65
2024/02/24 10:54:26;;;;;;;0.63;0.63;;;;;;;10.18;74.54;95084.94;5038161;28;20332;-65
2024/02/24 10:56:56;;;;;;;0.87;0.50;;;;;;;9.93;75.69;95079.44;5037179;28;20774;-64
2024/02/24 10:59:29;;;;;;;1.33;0.50;;;;;;;10.53;75.77;95071.38;5037622;28;21232;-64
2024/02/24 11:02:00;;;;;;;0.50;0.50;;;;;;;10.37;75.62;95077.03;5035864;28;20703;-67
2024/02/24 11:04:27;;;;;;;2.20;0.83;;;;;;;10.54;76.53;95068.50;5036871;28;20205;-63
2024/02/24 11:06:55;;;;;;;2.67;1.43;;;;;;;10.58;73.97;95063.66;5037301;28;20247;-67
2024/02/24 11:09:27;;;;;;;1.90;0.63;;;;;;;11.08;71.79;95069.78;5037573;28;21060;-67
2024/02/24 11:12:03;;;;;;;0.50;0.40;;;;;;;11.07;70.60;95065.56;5035779;28;20224;-67
2024/02/24 11:14:31;;;;;;;0.60;0.60;;;;;;;11.17;71.82;95071.19;5037737;28;21002;-64
2024/02/24 11:16:58;;;;;;;0.50;0.50;;;;;;;11.43;68.04;95063.19;5036538;28;20209;-67
2024/02/24 11:19:40;;;;;;;0.40;0.40;;;;;;;11.06;64.80;95069.22;5037693;28;20205;-67
2024/02/24 11:22:11;;;;;;;1.03;0.50;;;;;;;11.21;64.92;95080.28;5036098;28;20653;-64
2024/02/24 11:24:38;;;;;;;0.93;0.40;;;;;;;11.21;64.04;95082.94;5036513;28;20337;-66
2024/02/24 11:27:05;;;;;;;0.93;0.50;;;;;;;11.29;64.58;95090.63;5037453;28;20221;-68
2024/02/24 11:29:35;;;;;;;1.03;0.60;;;;;;;11.23;63.63;95080.91;5037877;28;20702;-67
2024/02/24 11:32:06;;;;;;;0.67;0.50;;;;;;;11.01;63.88;95090.09;5035805;28;20248;-66